Time;durP1;ratioP1;P1;durP2;ratioP2;P2;SDS_P1;SDS_P2;PMS_P1;PMS_P2;Temp;Humidity;BMP_temperature;BMP_pressure;BME280_temperature;BME280_humidity;BME280_pressure;Samples;Min_cycle;Max_cycle;Signal;HPM_P1;HPM_P2
2023/09/13 00:01:10;;;;;;;;;10.75;9.75;;;;;-143.90;92.02;74314.34;4914055;28;104190;-73
2023/09/13 00:03:37;;;;;;;;;15.50;14.50;;;;;-143.90;92.21;74324.69;4896457;28;103471;-74
2023/09/13 00:06:04;;;;;;;;;10.25;10.25;;;;;-143.90;92.12;74332.94;4909880;28;102071;-73
2023/09/13 00:08:31;;;;;;;;;9.00;7.67;;;;;-143.90;92.16;74332.94;4920363;28;103430;-73
2023/09/13 00:11:03;;;;;;;;;11.75;10.75;;;;;-143.90;92.61;74330.88;4918847;28;103803;-74
2023/09/13 00:13:32;;;;;;;;;12.25;11.00;;;;;-143.90;92.92;74326.75;4923441;28;102084;-73
2023/09/13 00:15:59;;;;;;;;;9.50;8.75;;;;;-143.90;92.71;74330.88;4929336;28;102092;-73
2023/09/13 00:18:25;;;;;;;;;9.00;8.50;;;;;-143.90;92.19;74337.06;4923966;28;102233;-73
2023/09/13 00:20:53;;;;;;;;;12.50;11.50;;;;;-143.90;91.80;74332.94;4916148;28;104045;-73
2023/09/13 00:23:20;;;;;;;;;9.25;7.25;;;;;-143.90;92.17;74341.22;4914618;28;102163;-73
2023/09/13 00:25:47;;;;;;;;;11.50;10.75;;;;;-143.90;93.62;74347.41;4922912;28;101982;-72
2023/09/13 00:28:14;;;;;;;;;17.50;15.75;;;;;-143.90;95.31;74357.75;4923768;28;102840;-72
2023/09/13 00:30:40;;;;;;;;;14.75;13.00;;;;;-143.90;96.13;74357.75;4925286;28;104289;-73
2023/09/13 00:33:07;;;;;;;;;21.75;19.75;;;;;-143.90;96.66;74374.28;4918959;28;102309;-72
2023/09/13 00:35:35;;;;;;;;;16.00;13.75;;;;;-143.90;96.62;74374.28;4909678;28;103502;-73
2023/09/13 00:38:02;;;;;;;;;21.50;19.25;;;;;-143.90;96.95;74384.63;4914897;28;102071;-72
2023/09/13 00:40:28;;;;;;;;;18.25;18.00;;;;;-143.90;96.67;74382.56;4919542;28;104295;-72
2023/09/13 00:42:55;;;;;;;;;24.25;22.00;;;;;-143.90;96.57;74394.94;4921780;28;102072;-72
2023/09/13 00:45:22;;;;;;;;;22.00;19.50;;;;;-143.90;95.83;74388.75;4916035;28;102341;-73
2023/09/13 00:47:49;;;;;;;;;12.75;12.75;;;;;-143.90;94.52;74390.81;4914639;28;102035;-73
2023/09/13 00:50:17;;;;;;;;;16.00;14.25;;;;;-143.90;94.06;74403.22;4903538;28;104109;-72
2023/09/13 00:52:46;;;;;;;;;13.00;12.50;;;;;-143.90;94.06;74403.22;4921680;28;103619;-72
2023/09/13 00:55:17;;;;;;;;;12.25;9.00;;;;;-143.90;93.90;74407.34;4924020;28;102019;-73
2023/09/13 00:57:44;;;;;;;;;11.25;11.25;;;;;-143.90;92.97;74403.22;4925907;28;102162;-72
2023/09/13 01:00:12;;;;;;;;;16.00;14.50;;;;;-143.90;94.04;74415.63;4919259;28;104458;-73
2023/09/13 01:02:40;;;;;;;;;21.50;19.75;;;;;-143.90;95.13;74432.16;4942687;28;102192;-72
2023/09/13 01:05:09;;;;;;;;;19.50;17.50;;;;;-143.90;96.27;74459.03;4914885;28;101961;-75
2023/09/13 01:07:40;;;;;;;;;19.50;19.50;;;;;-143.90;96.90;74452.84;4913420;28;102310;-73
2023/09/13 01:10:10;;;;;;;;;17.75;15.50;;;;;-143.90;97.23;74446.63;4920040;28;104228;-73
2023/09/13 01:12:37;;;;;;;;;13.50;13.00;;;;;-143.90;97.21;74444.56;4918429;28;102330;-73
2023/09/13 01:15:08;;;;;;;;;10.75;10.75;;;;;-143.90;96.55;74448.69;4926782;28;102118;-73
2023/09/13 01:18:08;;;;;;;;;9.00;8.00;;;;;-143.90;96.78;74452.84;4925764;28;102449;-73
2023/09/13 01:20:58;;;;;;;;;12.75;12.25;;;;;-143.90;97.47;74446.63;4918301;28;108472;-73
2023/09/13 01:23:33;;;;;;;;;13.00;11.75;;;;;-143.90;96.51;74452.84;4915940;28;103721;-73
2023/09/13 01:26:38;;;;;;;;;13.00;12.75;;;;;-143.90;95.33;74444.56;4900665;28;103374;-73
2023/09/13 01:29:06;;;;;;;;;13.00;11.00;;;;;-143.90;94.68;74448.69;4916233;28;103085;-73
2023/09/13 01:31:33;;;;;;;;;12.00;11.00;;;;;-143.90;93.69;74446.63;4919075;28;104088;-73
2023/09/13 01:34:00;;;;;;;;;10.25;9.75;;;;;-143.90;94.74;74461.09;4897515;28;102566;-73
2023/09/13 01:36:28;;;;;;;;;16.75;14.00;;;;;-143.90;95.54;74481.78;4922977;28;102260;-73
2023/09/13 01:38:55;;;;;;;;;19.00;18.00;;;;;-143.90;95.96;74487.97;4903700;28;102546;-73
2023/09/13 01:41:37;;;;;;;;;16.00;14.75;;;;;-143.90;95.94;74490.03;4914403;28;103398;-73
2023/09/13 01:44:05;;;;;;;;;10.00;10.00;;;;;-143.90;96.08;74477.63;4923073;28;103939;-73
2023/09/13 01:46:37;;;;;;;;;10.75;10.00;;;;;-143.90;95.42;74483.84;4929533;28;102810;-73
2023/09/13 01:49:06;;;;;;;;;11.00;11.00;;;;;-143.90;94.88;74477.63;4920622;28;102120;-73
2023/09/13 01:51:33;;;;;;;;;10.75;10.50;;;;;-143.90;94.52;74471.44;4904859;28;103030;-74
2023/09/13 01:54:00;;;;;;;;;11.00;11.00;;;;;-143.90;94.87;74473.50;4923731;28;102100;-73
2023/09/13 01:56:27;;;;;;;;;25.00;22.00;;;;;-143.90;95.71;74481.78;4919841;28;102205;-73
2023/09/13 01:58:54;;;;;;;;;22.00;22.00;;;;;-143.90;96.55;74481.78;4907463;28;104138;-73
2023/09/13 02:01:22;;;;;;;;;22.75;22.50;;;;;-143.90;98.58;74485.91;4919609;28;103504;-73
2023/09/13 02:03:49;;;;;;;;;27.75;27.00;;;;;-143.90;99.39;74492.09;4920999;28;102460;-73
2023/09/13 02:06:15;;;;;;;;;25.75;22.25;;;;;-143.90;99.01;74490.03;4926664;28;102330;-73
2023/09/13 02:08:42;;;;;;;;;23.25;21.00;;;;;-143.90;99.67;74500.38;4930930;28;102381;-73
2023/09/13 02:11:10;;;;;;;;;39.25;32.00;;;;;-143.90;100.00;74508.63;4930977;28;107575;-73
2023/09/13 02:13:38;;;;;;;;;47.00;39.50;;;;;-143.90;100.00;74504.50;4920642;28;102088;-73
2023/09/13 02:16:04;;;;;;;;;51.75;43.00;;;;;-143.90;100.00;74494.16;4925947;28;102244;-73
2023/09/13 02:18:31;;;;;;;;;55.00;45.25;;;;;-143.90;99.48;74504.50;4921904;28;102730;-73
2023/09/13 02:20:58;;;;;;;;;59.25;47.25;;;;;-143.90;99.02;74500.38;4916755;28;104243;-73
2023/09/13 02:23:25;;;;;;;;;52.00;44.00;;;;;-143.90;98.59;74498.31;4925778;28;102413;-73
2023/09/13 02:25:52;;;;;;;;;52.75;43.00;;;;;-143.90;98.96;74498.31;4925281;28;103667;-73
2023/09/13 02:28:18;;;;;;;;;39.75;35.75;;;;;-143.90;99.29;74504.50;4921064;28;103564;-73
2023/09/13 02:30:47;;;;;;;;;36.25;31.25;;;;;-143.90;100.00;74502.44;4925641;28;104932;-73
2023/09/13 02:33:14;;;;;;;;;27.25;25.50;;;;;-143.90;100.00;74506.56;4918824;28;103476;-73
2023/09/13 02:35:40;;;;;;;;;26.50;23.25;;;;;-143.90;100.00;74506.56;4924646;28;102104;-73
2023/09/13 02:38:07;;;;;;;;;22.50;21.00;;;;;-143.90;100.00;74492.09;4918318;28;103631;-73
2023/09/13 02:40:36;;;;;;;;;19.50;18.50;;;;;-143.90;99.93;74490.03;4923632;28;104432;-73
2023/09/13 02:43:03;;;;;;;;;18.50;12.25;;;;;-143.90;99.06;74494.16;4912492;28;103391;-73
2023/09/13 02:45:29;;;;;;;;;25.00;23.25;;;;;-143.90;99.24;74506.56;4918426;28;102302;-73
2023/09/13 02:47:56;;;;;;;;;27.00;24.50;;;;;-143.90;99.41;74512.78;4920526;28;102816;-73
2023/09/13 02:50:23;;;;;;;;;27.50;25.75;;;;;-143.90;99.97;74518.97;4914146;28;103970;-73
2023/09/13 02:52:50;;;;;;;;;30.00;26.00;;;;;-143.90;99.84;74525.19;4912959;28;103020;-73
2023/09/13 02:55:16;;;;;;;;;19.75;18.50;;;;;-143.90;99.62;74510.72;4922567;28;102240;-73
2023/09/13 02:57:43;;;;;;;;;27.50;24.25;;;;;-143.90;98.77;74510.72;4913368;28;103456;-73
2023/09/13 03:00:11;;;;;;;;;20.00;18.75;;;;;-143.90;97.18;74518.97;4920931;28;104031;-73
2023/09/13 03:02:38;;;;;;;;;22.00;22.00;;;;;-143.90;96.75;74518.97;4917796;28;102162;-73
2023/09/13 03:05:05;;;;;;;;;18.50;17.75;;;;;-143.90;95.79;74527.25;4917166;28;102319;-73
2023/09/13 03:07:32;;;;;;;;;25.00;20.50;;;;;-143.90;96.07;74531.38;4928763;28;102120;-73
2023/09/13 03:09:59;;;;;;;;;14.75;14.25;;;;;-143.90;96.88;74537.56;4925087;28;102904;-73
2023/09/13 03:12:25;;;;;;;;;15.75;13.25;;;;;-143.90;96.76;74539.66;4920221;28;103701;-73
2023/09/13 03:14:55;;;;;;;;;15.75;14.75;;;;;-143.90;96.94;74541.72;4908850;28;102712;-74
2023/09/13 03:17:21;;;;;;;;;12.50;11.50;;;;;-143.90;97.50;74547.91;4920704;28;102425;-74
2023/09/13 03:19:48;;;;;;;;;16.75;13.00;;;;;-143.90;99.08;74543.78;4916849;28;104906;-74
2023/09/13 03:22:15;;;;;;;;;24.75;20.75;;;;;-143.90;100.00;74539.66;4919874;28;102193;-73
2023/09/13 03:24:41;;;;;;;;;17.00;16.50;;;;;-143.90;100.00;74539.66;4918939;28;102302;-73
2023/09/13 03:27:09;;;;;;;;;14.50;13.75;;;;;-143.90;100.00;74543.78;4919578;28;102048;-73
2023/09/13 03:29:35;;;;;;;;;20.75;17.75;;;;;-143.90;100.00;74547.91;4920569;28;103171;-74
2023/09/13 03:32:04;;;;;;;;;17.75;15.00;;;;;-143.90;100.00;74539.66;4921958;28;102123;-72
2023/09/13 03:34:31;;;;;;;;;10.25;9.00;;;;;-143.90;100.00;74535.50;4918702;28;103959;-74
2023/09/13 03:36:58;;;;;;;;;18.00;16.00;;;;;-143.90;100.00;74539.66;4914418;28;102063;-73
2023/09/13 03:39:28;;;;;;;;;11.00;11.00;;;;;-143.90;99.74;74523.09;4928679;28;104123;-72
2023/09/13 03:41:56;;;;;;;;;18.00;15.75;;;;;-143.90;98.45;74529.31;4926851;28;102196;-72
2023/09/13 03:44:25;;;;;;;;;24.00;20.25;;;;;-143.90;97.79;74531.38;4914186;28;102315;-72
2023/09/13 03:46:52;;;;;;;;;18.00;17.25;;;;;-143.90;98.63;74541.72;4922574;28;103113;-73
2023/09/13 03:49:19;;;;;;;;;20.50;19.75;;;;;-143.90;98.88;74560.31;4923671;28;103952;-73
2023/09/13 03:51:46;;;;;;;;;22.00;20.75;;;;;-143.90;99.99;74564.44;4921781;28;102193;-73
2023/09/13 03:54:13;;;;;;;;;27.50;26.00;;;;;-143.90;100.00;74556.19;4921824;28;102049;-73
2023/09/13 03:56:40;;;;;;;;;22.25;20.75;;;;;-143.90;100.00;74556.19;4927235;28;102186;-73
2023/09/13 03:59:07;;;;;;;;;24.75;23.00;;;;;-143.90;100.00;74547.91;4924971;28;102987;-73
2023/09/13 04:01:34;;;;;;;;;19.25;18.50;;;;;-143.90;100.00;74547.91;4933563;28;102343;-73
2023/09/13 04:04:01;;;;;;;;;16.25;15.00;;;;;-143.90;100.00;74535.50;4925103;28;102428;-73
2023/09/13 04:06:28;;;;;;;;;16.00;15.00;;;;;-143.90;99.86;74535.50;4925548;28;102513;-73
2023/09/13 04:08:55;;;;;;;;;13.00;11.75;;;;;-143.90;99.56;74529.31;4923239;28;103101;-72
2023/09/13 04:11:22;;;;;;;;;17.25;16.00;;;;;-143.90;98.34;74531.38;4921499;28;104122;-73
2023/09/13 04:13:48;;;;;;;;;15.75;13.25;;;;;-143.90;97.59;74535.50;4922682;28;102449;-74
2023/09/13 04:16:16;;;;;;;;;15.75;14.75;;;;;-143.90;98.47;74547.91;4924513;28;102802;-74
2023/09/13 04:18:43;;;;;;;;;2.00;0.00;;;;;-143.90;98.44;74556.19;4924238;28;104192;-73
2023/09/13 04:21:10;;;;;;;;;16.25;15.25;;;;;-143.90;98.45;74556.19;4925721;28;102280;-74
2023/09/13 04:23:37;;;;;;;;;16.75;13.50;;;;;-143.90;98.71;74552.03;4916474;28;104773;-73
2023/09/13 04:26:04;;;;;;;;;10.00;10.00;;;;;-143.90;98.73;74549.97;4937630;28;102487;-72
2023/09/13 04:28:32;;;;;;;;;11.25;10.75;;;;;-143.90;98.02;74543.78;4935929;28;104107;-72
2023/09/13 04:30:59;;;;;;;;;13.00;12.25;;;;;-143.90;97.29;74535.50;4925059;28;102105;-72
2023/09/13 04:34:05;;;;;;;;;17.75;16.00;;;;;-143.90;95.68;74547.91;4927954;28;103505;-72
2023/09/13 04:36:32;;;;;;;;;20.75;20.75;;;;;-143.90;95.99;74558.25;4879505;28;102040;-72
2023/09/13 04:38:58;;;;;;;;;17.25;17.25;;;;;-143.90;96.48;74566.53;4879786;28;104796;-73
2023/09/13 04:41:26;;;;;;;;;20.25;18.50;;;;;-143.90;97.67;74576.84;4917615;28;102060;-73
2023/09/13 04:43:52;;;;;;;;;16.50;15.75;;;;;-143.90;98.07;74585.13;4916976;28;102091;-74
2023/09/13 04:46:19;;;;;;;;;17.25;16.50;;;;;-143.90;98.42;74581.00;4920075;28;103365;-74
2023/09/13 04:48:46;;;;;;;;;18.00;17.00;;;;;-143.90;99.76;74581.00;4924933;28;103968;-74
2023/09/13 04:51:13;;;;;;;;;20.50;17.00;;;;;-143.90;100.00;74581.00;4923493;28;102403;-74
2023/09/13 04:53:40;;;;;;;;;15.00;15.00;;;;;-143.90;100.00;74585.13;4930031;28;103066;-74
2023/09/13 04:56:07;;;;;;;;;22.00;19.25;;;;;-143.90;100.00;74572.72;4924009;28;102686;-74
2023/09/13 04:58:33;;;;;;;;;18.25;17.25;;;;;-143.90;100.00;74562.38;4937209;28;104001;-74
2023/09/13 05:01:04;;;;;;;;;17.00;15.00;;;;;-143.90;100.00;74566.53;4922183;28;102236;-74
2023/09/13 05:03:31;;;;;;;;;26.00;25.00;;;;;-143.90;100.00;74576.84;4917756;28;103313;-74
2023/09/13 05:05:57;;;;;;;;;22.25;20.25;;;;;-143.90;100.00;74574.78;4929139;28;102379;-74
2023/09/13 05:08:24;;;;;;;;;25.00;23.75;;;;;-143.90;100.00;74562.38;4927970;28;104319;-74
2023/09/13 05:10:52;;;;;;;;;24.50;21.00;;;;;-143.90;100.00;74549.97;4930654;28;102681;-75
2023/09/13 05:13:19;;;;;;;;;24.75;21.50;;;;;-143.90;100.00;74545.84;4931293;28;102502;-74
2023/09/13 05:15:46;;;;;;;;;18.00;17.00;;;;;-143.90;100.00;74529.31;4919425;28;103188;-74
2023/09/13 05:18:13;;;;;;;;;18.75;16.75;;;;;-143.90;100.00;74529.31;4930228;28;104191;-73
2023/09/13 05:20:40;;;;;;;;;18.00;17.00;;;;;-143.90;100.00;74521.03;4944244;28;101949;-73
2023/09/13 05:23:07;;;;;;;;;13.25;13.00;;;;;-143.90;100.00;74504.50;4940130;28;102250;-73
2023/09/13 05:25:33;;;;;;;;;19.00;18.00;;;;;-143.90;100.00;74498.31;4931822;28;105636;-73
2023/09/13 05:28:01;;;;;;;;;11.25;9.50;;;;;-143.90;100.00;74483.84;4927518;28;104178;-73
2023/09/13 05:30:32;;;;;;;;;14.00;14.00;;;;;-143.90;100.00;74465.22;4930314;28;102316;-73
2023/09/13 05:32:58;;;;;;;;;11.50;9.75;;;;;-143.90;100.00;74456.97;4930257;28;105142;-73
2023/09/13 05:35:25;;;;;;;;;12.00;12.00;;;;;-143.90;99.84;74463.16;4933774;28;102332;-73
2023/09/13 05:37:52;;;;;;;;;11.00;9.75;;;;;-143.90;99.58;74444.56;4926955;28;104246;-73
2023/09/13 05:40:19;;;;;;;;;15.75;15.00;;;;;-143.90;100.00;74432.16;4932157;28;102049;-73
2023/09/13 05:42:45;;;;;;;;;17.00;16.00;;;;;-143.90;100.00;74423.88;4932064;28;102025;-73
2023/09/13 05:45:12;;;;;;;;;14.25;14.25;;;;;-143.90;100.00;74405.28;4938578;28;102020;-73
2023/09/13 05:47:39;;;;;;;;;16.25;13.00;;;;;-143.90;99.35;74399.09;4910227;28;108515;-73
2023/09/13 05:50:06;;;;;;;;;11.25;10.25;;;;;-143.90;99.37;74378.41;4931488;28;102279;-73
2023/09/13 05:52:33;;;;;;;;;9.00;8.75;;;;;-143.90;99.40;74366.00;4931992;28;102132;-73
2023/09/13 05:54:59;;;;;;;;;17.50;13.50;;;;;-143.90;99.63;74351.53;4933418;28;102608;-73
2023/09/13 05:57:28;;;;;;;;;22.25;17.75;;;;;-143.90;99.77;74335.00;4926308;28;104052;-72
2023/09/13 05:59:54;;;;;;;;;32.75;26.25;;;;;-143.90;100.00;74324.69;4933206;28;103486;-72
2023/09/13 06:02:21;;;;;;;;;29.25;23.75;;;;;-143.90;100.00;74304.00;4934242;28;102289;-72
2023/09/13 06:04:48;;;;;;;;;19.50;16.75;;;;;-143.90;99.80;74287.47;4945136;28;102300;-73
2023/09/13 06:07:15;;;;;;;;;17.75;16.25;;;;;-143.90;100.00;74256.47;4926284;28;103940;-73
2023/09/13 06:09:41;;;;;;;;;17.00;16.50;;;;;-143.90;99.95;74227.53;4937064;28;102206;-73
2023/09/13 06:12:08;;;;;;;;;12.75;11.00;;;;;-143.90;99.78;74202.72;4919416;28;102880;-73
2023/09/13 06:14:36;;;;;;;;;13.75;11.25;;;;;-143.90;99.80;74175.84;4934135;28;102311;-73
2023/09/13 06:17:03;;;;;;;;;11.25;10.25;;;;;-143.90;99.38;74161.38;4927099;28;104132;-73
2023/09/13 06:19:30;;;;;;;;;10.25;10.25;;;;;-143.90;98.16;74138.66;4935154;28;101824;-73
2023/09/13 06:21:56;;;;;;;;;11.00;11.00;;;;;-143.90;97.08;74101.44;4947398;28;101848;-73
2023/09/13 06:24:24;;;;;;;;;10.67;9.00;;;;;-143.90;95.29;74047.72;4934409;28;102272;-73
2023/09/13 06:26:52;;;;;;;;;9.00;9.00;;;;;-143.90;92.88;74010.50;4928838;28;104057;-73
2023/09/13 06:29:19;;;;;;;;;15.00;13.50;;;;;-143.90;90.24;73971.25;4929112;28;102083;-71
2023/09/13 06:31:48;;;;;;;;;12.50;12.25;;;;;-143.90;88.62;73927.84;4934326;28;102050;-72
2023/09/13 06:34:31;;;;;;;;;13.67;13.00;;;;;-143.90;86.12;73896.84;4926349;28;102398;-73
2023/09/13 06:36:58;;;;;;;;;7.67;7.00;;;;;-143.90;84.44;73869.97;4927993;28;104206;-73
2023/09/13 06:39:26;;;;;;;;;10.33;9.67;;;;;-143.90;82.99;73841.03;4935842;28;103384;-73
2023/09/13 06:41:53;;;;;;;;;11.00;11.00;;;;;-143.90;82.37;73818.31;4923771;28;102137;-72
2023/09/13 06:44:20;;;;;;;;;16.33;15.00;;;;;-143.90;81.22;73799.69;4934048;28;102222;-72
2023/09/13 06:47:07;;;;;;;;;11.00;11.00;;;;;-143.90;79.96;73776.97;4924521;28;105589;-73
2023/09/13 06:49:35;;;;;;;;;12.67;11.67;;;;;-143.90;78.66;73762.50;4925252;28;102291;-73
2023/09/13 06:52:04;;;;;;;;;15.00;14.00;;;;;-143.90;77.40;73745.97;4929259;28;102145;-73
2023/09/13 06:54:33;;;;;;;;;20.00;17.00;;;;;-143.90;77.80;73731.50;4931017;28;102259;-73
2023/09/13 06:57:05;;;;;;;;;13.00;12.33;;;;;-143.90;75.30;73725.31;4929961;28;103975;-73
2023/09/13 06:59:35;;;;;;;;;14.33;13.67;;;;;-143.90;75.72;73721.16;4929218;28;102098;-74
2023/09/13 07:02:18;;;;;;;;;17.00;15.00;;;;;-143.90;75.80;73704.63;4925807;28;101905;-73
2023/09/13 07:04:47;;;;;;;;;10.00;10.00;;;;;-143.90;76.22;73692.25;4929343;28;102257;-74
2023/09/13 07:07:34;;;;;;;;;9.00;9.00;;;;;-143.90;76.20;73683.97;4928269;28;105604;-74
2023/09/13 07:10:03;;;;;;;;;7.00;6.67;;;;;-143.90;75.04;73663.31;4929330;28;102106;-73
2023/09/13 07:12:29;;;;;;;;;7.00;7.00;;;;;-143.90;73.29;73661.25;4932411;28;101988;-73
2023/09/13 07:14:56;;;;;;;;;9.00;9.00;;;;;-143.90;74.70;73646.78;4925054;28;102197;-73
2023/09/13 07:17:23;;;;;;;;;7.67;7.00;;;;;-143.90;74.65;73636.44;4929391;28;104159;-73
2023/09/13 07:19:50;;;;;;;;;8.67;8.33;;;;;-143.90;73.10;73621.97;4926088;28;102041;-73
2023/09/13 07:22:16;;;;;;;;;11.33;11.00;;;;;-143.90;72.93;73613.72;4931670;28;102277;-72
2023/09/13 07:24:43;;;;;;;;;10.00;9.33;;;;;-143.90;72.31;73607.50;4933953;28;102018;-72
2023/09/13 07:27:10;;;;;;;;;9.33;8.00;;;;;-143.90;71.32;73595.09;4925687;28;105770;-73
2023/09/13 07:29:37;;;;;;;;;11.00;10.33;;;;;-143.90;71.51;73580.63;4942479;28;102083;-72
2023/09/13 07:32:04;;;;;;;;;9.33;9.00;;;;;-143.90;69.31;73580.63;4933108;28;102134;-73
2023/09/13 07:34:30;;;;;;;;;8.67;8.67;;;;;-143.90;68.83;73562.03;4931843;28;102354;-73
2023/09/13 07:36:58;;;;;;;;;9.67;9.67;;;;;-143.90;68.63;73551.72;4930147;28;104402;-72
2023/09/13 07:39:25;;;;;;;;;11.33;8.67;;;;;-143.90;68.15;73543.44;4939718;28;101987;-72
2023/09/13 07:41:52;;;;;;;;;9.67;9.00;;;;;-143.90;70.02;73533.09;4931059;28;102858;-72
2023/09/13 07:44:18;;;;;;;;;9.33;9.00;;;;;-143.90;69.44;73518.66;4929713;28;102093;-73
2023/09/13 07:46:45;;;;;;;;;8.00;7.67;;;;;-143.90;67.08;73508.31;4931573;28;104350;-73
2023/09/13 07:49:12;;;;;;;;;10.00;9.33;;;;;-143.90;67.62;73493.84;4929503;28;102134;-74
2023/09/13 07:51:39;;;;;;;;;12.67;12.33;;;;;-143.90;67.79;73487.66;4928514;28;102180;-73
2023/09/13 07:54:07;;;;;;;;;10.00;10.00;;;;;-143.90;67.19;73471.13;4927914;28;108698;-73
2023/09/13 07:56:37;;;;;;;;;9.67;9.33;;;;;-143.90;68.59;73458.72;4932326;28;105572;-73
2023/09/13 07:59:07;;;;;;;;;8.67;8.67;;;;;-143.90;68.82;73456.66;4930579;28;102892;-73
2023/09/13 08:01:34;;;;;;;;;9.00;9.00;;;;;-143.90;69.19;73431.84;4928827;28;102093;-73
2023/09/13 08:04:00;;;;;;;;;9.33;8.33;;;;;-143.90;67.42;73427.72;4923017;28;102481;-73
2023/09/13 08:06:27;;;;;;;;;8.67;8.67;;;;;-143.90;66.38;73419.44;4930142;28;104096;-73
2023/09/13 08:08:54;;;;;;;;;12.33;11.00;;;;;-143.90;67.11;73413.25;4934313;28;102051;-74
2023/09/13 08:11:25;;;;;;;;;10.00;10.00;;;;;-143.90;66.60;73404.97;4927297;28;102033;-73
2023/09/13 08:13:51;;;;;;;;;9.33;9.00;;;;;-143.90;64.64;73392.59;4931443;28;102246;-73
2023/09/13 08:16:19;;;;;;;;;8.67;8.00;;;;;-143.90;67.16;73382.25;4928990;28;102863;-73
2023/09/13 08:18:45;;;;;;;;;9.00;9.00;;;;;-143.90;66.86;73361.59;4925977;28;104820;-72
2023/09/13 08:21:12;;;;;;;;;8.00;7.67;;;;;-143.90;63.73;73347.13;4923420;28;102066;-71
2023/09/13 08:23:39;;;;;;;;;9.67;7.67;;;;;-143.90;65.25;73332.66;4892983;28;102414;-72
2023/09/13 08:26:06;;;;;;;;;9.00;8.33;;;;;-143.90;63.80;73328.53;4909931;28;103987;-72
2023/09/13 08:28:50;;;;;;;;;13.00;11.67;;;;;-143.90;64.13;73314.06;4904686;28;102104;-72
2023/09/13 08:31:17;;;;;;;;;9.33;9.00;;;;;-143.90;65.77;73303.72;4917202;28;101995;-72
2023/09/13 08:33:46;;;;;;;;;8.00;8.00;;;;;-143.90;63.17;73291.31;4915896;28;101959;-73
2023/09/13 08:36:13;;;;;;;;;13.67;12.33;;;;;-143.90;64.35;73278.94;4899813;28;109809;-72
2023/09/13 08:38:40;;;;;;;;;13.00;12.00;;;;;-143.90;61.87;73283.06;4909859;28;101994;-73
2023/09/13 08:41:07;;;;;;;;;14.33;14.33;;;;;-143.90;64.56;73258.25;4900836;28;102059;-71
2023/09/13 08:43:36;;;;;;;;;10.67;10.67;;;;;-143.90;63.35;73247.94;4904261;28;101806;-72
2023/09/13 08:46:03;;;;;;;;;16.00;13.33;;;;;-143.90;62.10;73229.34;4910206;28;104049;-73
2023/09/13 08:48:32;;;;;;;;;15.33;15.00;;;;;-143.90;62.96;73214.88;4888911;28;102357;-72
2023/09/13 08:51:02;;;;;;;;;16.67;14.00;;;;;-143.90;63.19;73202.47;4912695;28;102034;-73
2023/09/13 08:53:31;;;;;;;;;16.67;15.00;;;;;-143.90;62.63;73200.41;4898434;28;102489;-73
2023/09/13 08:55:59;;;;;;;;;14.00;12.33;;;;;-143.90;60.51;73183.88;4904886;28;104145;-74
2023/09/13 08:58:26;;;;;;;;;12.00;11.00;;;;;-143.90;62.30;73157.00;4915681;28;102173;-73
2023/09/13 09:00:55;;;;;;;;;14.00;13.67;;;;;-143.90;60.34;73148.75;4915746;28;102870;-74
2023/09/13 09:03:24;;;;;;;;;11.67;11.00;;;;;-143.90;60.88;73134.28;4917752;28;102445;-72
2023/09/13 09:05:52;;;;;;;;;11.67;11.00;;;;;-143.90;60.29;73123.94;4914287;28;104146;-73
2023/09/13 09:08:19;;;;;;;;;14.00;14.00;;;;;-143.90;57.60;73121.88;4909006;28;102132;-73
2023/09/13 09:10:51;;;;;;;;;15.00;14.00;;;;;-143.90;56.64;73121.88;4892829;28;102145;-72
2023/09/13 09:13:20;;;;;;;;;15.00;13.67;;;;;-143.90;57.77;73117.75;4911914;28;102474;-72
2023/09/13 09:15:47;;;;;;;;;13.00;13.00;;;;;-143.90;57.21;73107.41;4913817;28;104039;-72
2023/09/13 09:18:15;;;;;;;;;17.33;16.00;;;;;-143.90;58.86;73097.09;4918509;28;102107;-72
2023/09/13 09:20:43;;;;;;;;;14.33;13.67;;;;;-143.90;59.35;73088.81;4901833;28;102572;-72
2023/09/13 09:23:11;;;;;;;;;18.33;16.33;;;;;-143.90;55.78;73084.69;4917702;28;102410;-72
2023/09/13 09:25:39;;;;;;;;;17.33;17.00;;;;;-143.90;56.00;73074.34;4908663;28;103588;-72
2023/09/13 09:28:06;;;;;;;;;15.00;15.00;;;;;-143.90;55.10;73072.28;4931191;28;102234;-72
2023/09/13 09:30:33;;;;;;;;;15.33;14.00;;;;;-143.90;55.48;73066.09;4926577;28;102316;-72
2023/09/13 09:33:04;;;;;;;;;16.67;15.67;;;;;-143.90;54.70;73059.91;4925145;28;102399;-72
2023/09/13 09:35:36;;;;;;;;;19.67;19.00;;;;;-143.90;54.04;73051.63;4930418;28;103571;-72
2023/09/13 09:38:03;;;;;;;;;20.00;18.33;;;;;-143.90;55.49;73051.63;4934741;28;102789;-73
2023/09/13 09:40:38;;;;;;;;;20.00;20.00;;;;;-143.90;52.84;73051.63;4919713;28;102122;-73
2023/09/13 09:43:05;;;;;;;;;27.33;26.33;;;;;-143.90;53.02;73051.63;4933978;28;102322;-73
2023/09/13 09:45:32;;;;;;;;;22.67;22.33;;;;;-143.90;54.61;73045.44;4912522;28;103504;-72
2023/09/13 09:47:59;;;;;;;;;20.67;20.00;;;;;-143.90;54.66;73035.09;4922017;28;102163;-72
2023/09/13 09:50:31;;;;;;;;;17.33;17.33;;;;;-143.90;53.27;73026.84;4923068;28;102026;-73
2023/09/13 09:52:57;;;;;;;;;20.00;19.00;;;;;-143.90;54.19;73028.91;4929116;28;102500;-73
2023/09/13 09:55:28;;;;;;;;;17.67;15.33;;;;;-143.90;52.98;73010.31;4931601;28;103991;-72
2023/09/13 09:57:55;;;;;;;;;17.67;17.00;;;;;-143.90;54.29;73002.03;4932147;28;102308;-71
2023/09/13 10:00:22;;;;;;;;;15.33;12.67;;;;;-143.90;55.82;72981.38;4927145;28;102532;-72
2023/09/13 10:02:49;;;;;;;;;19.00;16.67;;;;;-143.90;53.82;72968.97;4910274;28;102127;-73
2023/09/13 10:05:18;;;;;;;;;19.00;18.33;;;;;-143.90;53.52;72952.44;4925381;28;103564;-73
2023/09/13 10:07:50;;;;;;;;;19.67;19.00;;;;;-143.90;54.66;72946.25;4927934;28;101796;-72
2023/09/13 10:10:29;;;;;;;;;20.33;19.00;;;;;-143.90;51.00;72940.06;4918045;28;101820;-72
2023/09/13 10:12:56;;;;;;;;;18.67;18.67;;;;;-143.90;53.59;72933.84;4918886;28;105363;-72
2023/09/13 10:15:24;;;;;;;;;22.00;20.00;;;;;-143.90;53.58;72935.91;4924714;28;104548;-73
2023/09/13 10:17:51;;;;;;;;;25.33;22.33;;;;;-143.90;50.44;72933.84;4912614;28;102279;-72
2023/09/13 10:20:21;;;;;;;;;22.67;21.67;;;;;-143.90;49.26;72933.84;4922117;28;101781;-73
2023/09/13 10:22:49;;;;;;;;;17.00;17.00;;;;;-143.90;50.51;72921.47;4887138;28;1228736;-73
2023/09/13 10:25:18;;;;;;;;;17.33;17.33;;;;;-143.90;51.42;72902.84;4915914;28;104153;-73
2023/09/13 10:27:49;;;;;;;;;19.00;17.33;;;;;-143.90;50.21;72911.13;4932133;28;102081;-73
2023/09/13 10:30:24;;;;;;;;;16.33;15.33;;;;;-143.90;49.80;72898.72;4923588;28;102406;-74
2023/09/13 10:32:57;;;;;;;;;16.00;15.00;;;;;-143.90;49.56;72892.53;4917689;28;102433;-72
2023/09/13 10:35:29;;;;;;;;;13.33;13.33;;;;;-143.90;51.55;72878.06;4927627;28;104007;-72
2023/09/13 10:38:04;;;;;;;;;16.67;16.67;;;;;-143.90;50.00;72886.34;4916992;28;102176;-73
2023/09/13 10:40:38;;;;;;;;;15.33;15.00;;;;;-143.90;51.90;72882.19;4920714;28;102276;-72
2023/09/13 10:43:06;;;;;;;;;14.00;14.00;;;;;-143.90;51.09;72880.13;4925269;28;102743;-72
2023/09/13 10:45:33;;;;;;;;;15.00;14.00;;;;;-143.90;51.78;72869.81;4903445;28;103642;-73
2023/09/13 10:48:03;;;;;;;;;15.67;15.67;;;;;-143.90;50.77;72861.53;4919765;28;102231;-72
2023/09/13 10:50:31;;;;;;;;;16.67;15.67;;;;;-143.90;49.73;72849.13;4914384;28;101787;-72
2023/09/13 10:53:00;;;;;;;;;13.00;13.00;;;;;-143.90;51.34;72849.13;4922804;28;103296;-73
2023/09/13 10:55:27;;;;;;;;;15.33;14.67;;;;;-143.90;50.72;72840.88;4932594;28;103831;-73
2023/09/13 10:57:57;;;;;;;;;20.00;18.00;;;;;-143.90;50.36;72842.94;4922200;28;101887;-72
2023/09/13 11:00:31;;;;;;;;;18.00;17.00;;;;;-143.90;48.97;72840.88;4917856;28;102277;-73